Ridgeville, Alabama
Current Conditions -  °F | °C
As of 4:55 PM on Tuesday 21 Oct 2014 (Local Time) from KGAD Reporting Station
Clear Clear  
Wind Chill: 72°   Ceiling: Unl
Heat Index: 72°   Visibility: 10mi
Dew Point: 46°   Wind: 8mph
Humidity: 41%   Direction: 340°NNW
Pressure: 30"   Gusts: NA
Location:  34.0771°N, 86.0689°W
Report Text: KGAD 212155Z 34007KT 10SM CLR 22/08 A3000 RMK AO1
Loading
Personal Weather Stations






























Interactive Weather Map New forecast layout! Learn more

10-Day Weather Forecast

Advertisements
Track Severe Weather on mobile